createdAt,value
2022-12-26T00:01:56.515Z,99857.13
2022-12-26T00:04:50.755Z,99845.94
2022-12-26T00:07:15.369Z,99836.13
2022-12-26T00:09:43.939Z,99845.94
2022-12-26T00:12:12.307Z,99824.66
2022-12-26T00:14:41.292Z,99835.28
2022-12-26T00:17:09.673Z,99817.72
2022-12-26T00:19:39.372Z,99814.00
2022-12-26T00:22:07.735Z,99800.72
2022-12-26T00:24:36.109Z,99819.31
2022-12-26T00:27:04.485Z,99811.13
2022-12-26T00:29:33.030Z,99822.56
2022-12-26T00:32:01.481Z,99827.88
2022-12-26T00:34:29.964Z,99822.56
2022-12-26T00:36:59.638Z,99811.13
2022-12-26T00:39:27.959Z,99800.47
2022-12-26T00:41:56.284Z,99815.38
2022-12-26T00:44:24.714Z,99828.94
2022-12-26T00:46:55.195Z,99828.66
2022-12-26T00:49:23.663Z,99832.38
2022-12-26T00:51:52.004Z,99828.13
2022-12-26T00:54:21.703Z,99825.72
2022-12-26T00:56:50.033Z,99822.00
2022-12-26T00:59:18.354Z,99833.69
2022-12-26T01:01:46.826Z,99831.03
2022-12-26T01:04:15.350Z,99834.75
2022-12-26T01:06:43.666Z,99841.94
2022-12-26T01:09:12.229Z,99833.69
2022-12-26T01:11:42.138Z,99835.28
2022-12-26T01:14:13.878Z,99820.16
2022-12-26T01:16:43.844Z,99811.91
2022-12-26T01:19:13.043Z,99810.84
2022-12-26T01:21:43.107Z,99809.81
2022-12-26T01:24:11.785Z,99824.16
2022-12-26T01:27:17.737Z,99826.28
2022-12-26T01:29:46.312Z,99819.88
2022-12-26T01:32:14.673Z,99814.56
2022-12-26T01:34:43.133Z,99830.25
2022-12-26T01:37:13.661Z,99807.16
2022-12-26T01:39:42.277Z,99822.28
2022-12-26T01:42:14.605Z,99831.09
2022-12-26T01:45:04.794Z,99835.06
2022-12-26T01:47:43.072Z,99839.56
2022-12-26T01:50:34.146Z,99832.09
2022-12-26T01:53:09.624Z,99867.22
2022-12-26T01:55:40.212Z,99844.31
2022-12-26T01:58:14.949Z,99841.94
2022-12-26T02:00:44.773Z,99839.28
2022-12-26T02:03:31.486Z,99839.28
2022-12-26T02:06:02.159Z,99829.13
2022-12-26T02:08:35.379Z,99825.16
2022-12-26T02:11:13.766Z,99819.03
2022-12-26T02:13:42.668Z,99844.81
2022-12-26T02:16:15.647Z,99829.34
2022-12-26T02:18:44.278Z,99849.59
2022-12-26T02:21:47.233Z,99858.06
2022-12-26T02:25:05.109Z,99875.31
2022-12-26T02:28:11.774Z,99880.91
2022-12-26T02:30:47.889Z,99874.53
2022-12-26T02:33:42.736Z,99860.16
2022-12-26T02:36:30.801Z,99868.72
2022-12-26T02:39:43.410Z,99874.03
2022-12-26T02:42:15.282Z,99870.31
2022-12-26T02:45:06.567Z,99847.97
2022-12-26T02:47:43.682Z,99862.59
2022-12-26T02:50:40.520Z,99861.81
2022-12-26T02:53:31.900Z,99869.78
2022-12-26T02:56:25.437Z,99864.94
2022-12-26T02:59:18.010Z,99877.44
2022-12-26T03:02:07.587Z,99873.16
2022-12-26T03:04:58.510Z,99860.63
2022-12-26T03:07:48.495Z,99872.84
2022-12-26T03:10:39.295Z,99864.88
2022-12-26T03:13:16.966Z,99874.50
2022-12-26T03:16:11.756Z,99868.09
2022-12-26T03:18:59.041Z,99857.47
2022-12-26T03:21:34.059Z,99860.94
2022-12-26T03:24:02.373Z,99859.88
2022-12-26T03:26:41.537Z,99864.38
2022-12-26T03:29:31.025Z,99862.53
2022-12-26T03:32:01.515Z,99834.34
2022-12-26T03:34:30.202Z,99820.25
2022-12-26T03:37:49.097Z,99822.91
2022-12-26T03:41:12.347Z,99806.38
2022-12-26T03:44:38.491Z,99800.50
2022-12-26T03:47:41.938Z,99813.56
2022-12-26T03:50:44.020Z,99815.97
2022-12-26T03:53:40.799Z,99816.50
2022-12-26T03:56:32.878Z,99818.13
2022-12-26T03:59:24.509Z,99824.50
2022-12-26T04:02:08.277Z,99833.03
2022-12-26T04:04:58.862Z,99826.66
2022-12-26T04:07:56.444Z,99846.06
2022-12-26T04:10:49.428Z,99846.34
2022-12-26T04:13:40.602Z,99839.94
2022-12-26T04:16:38.728Z,99860.16
2022-12-26T04:19:27.216Z,99869.22
2022-12-26T04:22:22.144Z,99873.47
2022-12-26T04:25:15.083Z,99871.59
2022-12-26T04:28:02.672Z,99868.16
2022-12-26T04:30:51.870Z,99878.00
2022-12-26T04:33:44.287Z,99871.88
2022-12-26T04:36:36.007Z,99873.47
2022-12-26T04:39:25.211Z,99866.56
2022-12-26T04:42:11.486Z,99873.72
2022-12-26T04:44:44.023Z,99874.53
2022-12-26T04:47:13.034Z,99862.03
2022-12-26T04:50:03.195Z,99873.25
2022-12-26T04:52:45.853Z,99864.47
2022-12-26T04:55:14.430Z,99849.53
2022-12-26T04:57:42.916Z,99864.69
2022-12-26T05:00:14.585Z,99867.34
2022-12-26T05:03:00.656Z,99870.59
2022-12-26T05:05:46.724Z,99878.00
2022-12-26T05:08:40.619Z,99889.91
2022-12-26T05:11:08.933Z,99881.41
2022-12-26T05:13:37.286Z,99869.16
2022-12-26T05:16:26.343Z,99880.34
2022-12-26T05:19:12.535Z,99885.66
2022-12-26T05:21:58.289Z,99882.47
2022-12-26T05:24:45.998Z,99886.16
2022-12-26T05:27:34.262Z,99888.81
2022-12-26T05:30:02.718Z,99888.81
2022-12-26T05:32:49.632Z,99880.34
2022-12-26T05:35:17.965Z,99889.91
2022-12-26T05:37:48.928Z,99889.69
2022-12-26T05:40:17.368Z,99884.09
2022-12-26T05:42:45.665Z,99892.88
2022-12-26T05:45:14.171Z,99899.03
2022-12-26T05:47:48.350Z,99884.69
2022-12-26T05:50:20.121Z,99886.28
2022-12-26T05:52:48.444Z,99879.34
2022-12-26T05:55:17.196Z,99875.09
2022-12-26T05:57:45.600Z,99880.72
2022-12-26T06:00:15.812Z,99875.41
2022-12-26T06:02:45.655Z,99875.41
2022-12-26T06:05:14.067Z,99881.53
2022-12-26T06:07:42.506Z,99886.84
2022-12-26T06:10:11.669Z,99886.59
2022-12-26T06:12:40.088Z,99872.22
2022-12-26T06:15:09.836Z,99869.34
2022-12-26T06:17:38.206Z,99866.66
2022-12-26T06:20:09.955Z,99875.44
2022-12-26T06:22:38.415Z,99892.22
2022-12-26T06:25:08.464Z,99887.94
2022-12-26T06:27:37.031Z,99877.00
2022-12-26T06:30:06.684Z,99880.19
2022-12-26T06:32:35.420Z,99871.41
2022-12-26T06:35:03.757Z,99879.16
2022-12-26T06:37:34.777Z,99881.03
2022-12-26T06:40:03.118Z,99880.47
2022-12-26T06:42:33.511Z,99893.50
2022-12-26T06:45:02.176Z,99887.66
2022-12-26T06:47:30.644Z,99899.66
2022-12-26T06:49:59.047Z,99891.66
2022-12-26T06:52:27.452Z,99892.97
2022-12-26T06:54:58.852Z,99911.81
2022-12-26T06:57:27.215Z,99902.81
2022-12-26T06:59:55.576Z,99906.25
2022-12-26T07:02:24.071Z,99908.91
2022-12-26T07:04:52.491Z,99917.38
2022-12-26T07:07:20.808Z,99920.84
2022-12-26T07:09:49.106Z,99922.97
2022-12-26T07:12:20.912Z,99924.25
2022-12-26T07:14:49.898Z,99917.56
2022-12-26T07:17:18.279Z,99923.38
2022-12-26T07:19:46.587Z,99929.19
2022-12-26T07:22:14.861Z,99936.63
2022-12-26T07:24:43.203Z,99934.78
2022-12-26T07:27:11.512Z,99927.06
2022-12-26T07:29:41.237Z,99930.75
2022-12-26T07:32:09.547Z,99944.28
2022-12-26T07:34:37.882Z,99934.72
2022-12-26T07:37:06.331Z,99939.22
2022-12-26T07:39:35.647Z,99943.72
2022-12-26T07:42:04.051Z,99945.03
2022-12-26T07:44:34.712Z,99955.91
2022-12-26T07:47:04.360Z,99942.28
2022-12-26T07:49:32.695Z,99951.31
2022-12-26T07:52:01.854Z,99956.91
2022-12-26T07:54:32.229Z,99951.28
2022-12-26T07:57:29.710Z,99945.38
2022-12-26T07:59:52.098Z,99935.00
2022-12-26T08:02:25.097Z,99944.59
2022-12-26T08:04:53.687Z,99942.16
2022-12-26T08:07:22.007Z,99938.47
2022-12-26T08:09:50.395Z,99949.91
2022-12-26T08:12:21.617Z,99950.13
2022-12-26T08:14:50.361Z,99953.03
2022-12-26T08:17:18.771Z,99971.66
2022-12-26T08:19:48.506Z,99966.59
2022-12-26T08:22:16.867Z,99972.94
2022-12-26T08:24:45.211Z,99974.00
2022-12-26T08:27:13.559Z,99978.25
2022-12-26T08:29:41.868Z,99978.50
2022-12-26T08:32:10.156Z,99976.66
2022-12-26T08:34:38.498Z,99979.31
2022-12-26T08:37:08.213Z,99981.97
2022-12-26T08:39:36.570Z,99987.28
2022-12-26T08:42:05.063Z,100003.47
2022-12-26T08:44:33.419Z,100014.13
2022-12-26T08:47:01.726Z,100015.16
2022-12-26T08:49:30.093Z,100022.56
2022-12-26T08:51:58.420Z,100028.94
2022-12-26T08:54:28.168Z,100034.47
2022-12-26T08:56:56.492Z,100035.75
2022-12-26T08:59:24.823Z,100028.03
2022-12-26T09:01:53.634Z,100017.66
2022-12-26T09:04:22.052Z,100021.13
2022-12-26T09:06:50.402Z,100015.81
2022-12-26T09:09:18.749Z,100017.41
2022-12-26T09:11:48.480Z,100004.94
2022-12-26T09:14:16.819Z,99981.00
2022-12-26T09:16:50.967Z,99981.00
2022-12-26T09:19:21.159Z,99998.81
2022-12-26T09:22:11.192Z,100018.22
2022-12-26T09:24:39.500Z,100024.34
2022-12-26T09:27:09.489Z,100046.41
2022-12-26T09:29:39.246Z,100061.53
2022-12-26T09:32:07.687Z,100068.50
2022-12-26T09:34:35.994Z,100064.19
2022-12-26T09:37:04.501Z,100065.25
2022-12-26T09:39:33.009Z,100050.38
2022-12-26T09:42:18.392Z,100037.56
2022-12-26T09:44:58.455Z,100042.88
2022-12-26T09:47:34.670Z,100030.06
2022-12-26T09:50:13.250Z,100037.22
2022-12-26T09:52:49.627Z,100071.19
2022-12-26T09:55:37.165Z,100102.28
2022-12-26T09:58:18.233Z,100101.47
2022-12-26T10:00:53.480Z,100105.75
2022-12-26T10:03:23.404Z,100083.13
2022-12-26T10:06:07.811Z,100096.88
2022-12-26T10:09:16.811Z,100100.03
2022-12-26T10:12:01.281Z,100077.72
2022-12-26T10:14:42.813Z,100063.63
2022-12-26T10:17:21.174Z,100054.06
2022-12-26T10:20:09.130Z,100061.78
2022-12-26T10:23:03.909Z,100076.34
2022-12-26T10:25:43.333Z,100097.59
2022-12-26T10:28:19.934Z,100092.28
2022-12-26T10:30:51.606Z,100099.41
2022-12-26T10:33:34.394Z,100109.84
2022-12-26T10:36:03.426Z,100096.75
2022-12-26T10:38:39.137Z,100072.50
2022-12-26T10:41:15.588Z,100083.94
2022-12-26T10:43:45.637Z,100069.84
2022-12-26T10:46:50.252Z,100086.06
2022-12-26T10:49:23.571Z,100092.41
2022-12-26T10:51:52.680Z,100086.06
2022-12-26T10:54:21.387Z,100085.00
2022-12-26T10:56:53.026Z,100090.31
2022-12-26T10:59:39.990Z,100091.38
2022-12-26T11:02:26.452Z,100094.28
2022-12-26T11:05:22.086Z,100101.41
2022-12-26T11:08:09.317Z,100092.09
2022-12-26T11:10:38.442Z,100075.34
2022-12-26T11:13:09.827Z,100087.00
2022-12-26T11:15:42.870Z,100083.53
2022-12-26T11:18:22.175Z,100088.03
2022-12-26T11:20:51.717Z,100104.78
2022-12-26T11:23:28.270Z,100102.13
2022-12-26T11:25:58.819Z,100094.16
2022-12-26T11:28:33.650Z,100093.09
2022-12-26T11:31:06.355Z,100085.72
2022-12-26T11:33:43.324Z,100093.69
2022-12-26T11:36:19.873Z,100087.56
2022-12-26T11:38:53.570Z,100086.78
2022-12-26T11:41:39.891Z,100085.97
2022-12-26T11:44:25.138Z,100081.69
2022-12-26T11:46:59.577Z,100086.53
2022-12-26T11:49:34.166Z,100083.06
2022-12-26T11:52:25.032Z,100076.94
2022-12-26T11:54:53.404Z,100067.94
2022-12-26T11:57:25.926Z,100082.81
2022-12-26T11:59:54.820Z,100069.31
2022-12-26T12:02:28.089Z,100079.69
2022-12-26T12:05:02.981Z,100072.78
2022-12-26T12:08:12.510Z,100079.81
2022-12-26T12:11:22.570Z,100088.03
2022-12-26T12:14:15.224Z,100090.44
2022-12-26T12:16:53.510Z,100081.22
2022-12-26T12:19:36.462Z,100067.94
2022-12-26T12:22:50.769Z,100070.84
2022-12-26T12:25:31.892Z,100071.16
2022-12-26T12:28:08.910Z,100070.44
2022-12-26T12:30:49.730Z,100069.63
2022-12-26T12:33:40.009Z,100073.91
2022-12-26T12:36:11.811Z,100055.28
2022-12-26T12:39:16.860Z,100056.34
2022-12-26T12:42:07.928Z,100047.59
2022-12-26T12:44:55.789Z,100056.09
2022-12-26T12:47:38.912Z,100045.28
2022-12-26T12:50:18.327Z,100059.13
2022-12-26T12:52:56.751Z,100058.31
2022-12-26T12:55:44.383Z,100061.56
2022-12-26T12:58:23.360Z,100057.03
2022-12-26T13:00:55.873Z,100061.28
2022-12-26T13:03:31.799Z,100058.97
2022-12-26T13:06:07.612Z,100054.44
2022-12-26T13:08:41.605Z,100055.25
2022-12-26T13:11:18.945Z,100059.75
2022-12-26T13:13:54.041Z,100048.34
2022-12-26T13:16:26.997Z,100049.94
2022-12-26T13:19:02.071Z,100057.91
2022-12-26T13:21:37.692Z,100062.19
2022-12-26T13:24:24.285Z,100052.38
2022-12-26T13:27:02.768Z,100052.59
2022-12-26T13:29:39.795Z,100051.78
2022-12-26T13:32:21.099Z,100050.75
2022-12-26T13:34:51.694Z,100045.19
2022-12-26T13:38:01.740Z,100048.59
2022-12-26T13:40:32.321Z,100035.63
2022-12-26T13:43:32.432Z,100035.38
2022-12-26T13:46:01.897Z,100031.13
2022-12-26T13:49:00.327Z,100024.41
2022-12-26T13:51:51.675Z,100026.28
2022-12-26T13:54:21.573Z,100021.75
2022-12-26T13:57:37.459Z,100030.78
2022-12-26T14:00:20.437Z,100027.88
2022-12-26T14:03:33.150Z,100014.03
2022-12-26T14:06:41.062Z,100028.34
2022-12-26T14:09:23.788Z,100020.97
2022-12-26T14:12:45.999Z,100013.00
2022-12-26T14:15:31.423Z,100005.81
2022-12-26T14:18:19.718Z,100012.19
2022-12-26T14:20:56.111Z,100014.59
2022-12-26T14:23:45.719Z,100018.31
2022-12-26T14:26:29.818Z,100019.91
2022-12-26T14:29:07.608Z,100031.34
2022-12-26T14:31:44.526Z,100028.94
2022-12-26T14:34:28.820Z,100027.56
2022-12-26T14:37:04.851Z,100047.69
2022-12-26T14:39:44.296Z,100046.88
2022-12-26T14:42:40.847Z,100037.50
2022-12-26T14:45:40.147Z,100036.38
2022-12-26T14:48:46.763Z,100030.75
2022-12-26T14:51:48.528Z,100034.91
2022-12-26T14:54:43.161Z,100051.91
2022-12-26T14:57:43.344Z,100052.94
2022-12-26T15:00:35.241Z,100074.44
2022-12-26T15:03:47.139Z,100060.81
2022-12-26T15:06:58.921Z,100067.41
2022-12-26T15:10:40.206Z,100065.47
2022-12-26T15:14:01.861Z,100064.91
2022-12-26T15:17:08.884Z,100062.75
2022-12-26T15:23:13.244Z,100062.75
2022-12-26T15:26:51.008Z,100055.00
2022-12-26T15:29:53.527Z,100057.09
2022-12-26T15:32:33.108Z,100052.81
2022-12-26T15:35:15.059Z,100057.09
2022-12-26T15:38:07.999Z,100061.84
2022-12-26T15:40:44.716Z,100060.22
2022-12-26T15:43:49.355Z,100059.44
2022-12-26T15:46:23.759Z,100054.66
2022-12-26T15:49:14.336Z,100058.94
2022-12-26T15:51:56.919Z,100054.44
2022-12-26T15:55:12.373Z,100056.28
2022-12-26T15:57:52.165Z,100048.09
2022-12-26T16:00:23.976Z,100049.69
2022-12-26T16:03:21.932Z,100038.72
2022-12-26T16:05:59.455Z,100052.59
2022-12-26T16:09:09.563Z,100055.47
2022-12-26T16:11:54.432Z,100040.34
2022-12-26T16:14:31.100Z,100043.81
2022-12-26T16:17:21.387Z,100035.53
2022-12-26T16:19:51.751Z,100048.00
2022-12-26T16:22:46.987Z,100037.59
2022-12-26T16:25:18.878Z,100038.66
2022-12-26T16:27:51.522Z,100055.84
2022-12-26T16:30:23.712Z,100067.75
2022-12-26T16:32:53.331Z,100062.69
2022-12-26T16:35:26.842Z,100097.13
2022-12-26T16:37:59.109Z,100125.41
2022-12-26T16:40:31.527Z,100130.81
2022-12-26T16:43:10.025Z,100131.53
2022-12-26T16:45:39.841Z,100137.09
2022-12-26T16:48:10.227Z,100147.47
2022-12-26T16:50:47.584Z,100162.81
2022-12-26T16:53:19.343Z,100173.19
2022-12-26T16:55:50.280Z,100176.31
2022-12-26T16:58:25.408Z,100158.19
2022-12-26T17:01:06.008Z,100163.16
2022-12-26T17:03:48.907Z,100164.22
2022-12-26T17:06:20.181Z,100155.66
2022-12-26T17:08:51.708Z,100151.75
2022-12-26T17:11:30.719Z,100158.31
2022-12-26T17:14:02.835Z,100162.03
2022-12-26T17:16:33.404Z,100138.13
2022-12-26T17:19:16.497Z,100157.75
2022-12-26T17:22:25.447Z,100181.84
2022-12-26T17:25:21.268Z,100183.16
2022-12-26T17:28:23.282Z,100234.56
2022-12-26T17:30:54.508Z,100244.84
2022-12-26T17:33:25.921Z,100243.69
2022-12-26T17:38:48.496Z,100266.47
2022-12-26T17:41:18.428Z,100261.63
2022-12-26T17:43:48.364Z,100252.31
2022-12-26T17:46:19.623Z,100244.00
2022-12-26T17:48:48.039Z,100243.41
2022-12-26T17:51:18.812Z,100245.25
2022-12-26T17:53:51.576Z,100236.50
2022-12-26T17:56:24.221Z,100221.63
2022-12-26T17:58:52.798Z,100233.03
2022-12-26T18:01:22.697Z,100239.34
2022-12-26T18:03:52.085Z,100221.63
2022-12-26T18:06:21.901Z,100242.84
2022-12-26T18:08:50.326Z,100250.78
2022-12-26T18:11:18.679Z,100235.91
2022-12-26T18:13:46.998Z,100253.44
2022-12-26T18:16:18.274Z,100257.09
2022-12-26T18:18:49.407Z,100250.19
2022-12-26T18:21:18.421Z,100249.41
2022-12-26T18:23:46.759Z,100250.44
2022-12-26T18:26:21.750Z,100269.00
2022-12-26T18:28:51.938Z,100265.53
2022-12-26T18:31:20.577Z,100250.09
2022-12-26T18:33:50.530Z,100268.84
2022-12-26T18:36:19.413Z,100283.16
2022-12-26T18:38:47.925Z,100276.47
2022-12-26T18:41:17.733Z,100275.09
2022-12-26T18:43:46.242Z,100269.78
2022-12-26T18:46:17.900Z,100267.34
2022-12-26T18:48:46.528Z,100278.19
2022-12-26T18:51:16.362Z,100276.53
2022-12-26T18:53:55.214Z,100270.69
2022-12-26T18:56:24.585Z,100272.72
2022-12-26T18:58:57.889Z,100276.44
2022-12-26T19:01:27.426Z,100281.72
2022-12-26T19:03:55.924Z,100291.19
2022-12-26T19:06:28.549Z,100296.13
2022-12-26T19:08:58.511Z,100309.56
2022-12-26T19:11:26.915Z,100306.34
2022-12-26T19:13:55.408Z,100317.16
2022-12-26T19:16:23.791Z,100325.34
2022-12-26T19:18:53.007Z,100329.25
2022-12-26T19:21:22.358Z,100331.09
2022-12-26T19:23:52.161Z,100335.84
2022-12-26T19:26:20.667Z,100341.13
2022-12-26T19:28:52.822Z,100346.63
2022-12-26T19:31:21.874Z,100343.41
2022-12-26T19:33:50.477Z,100356.66
2022-12-26T19:36:21.111Z,100356.06
2022-12-26T19:38:50.884Z,100358.72
2022-12-26T19:41:19.316Z,100382.00
2022-12-26T19:43:47.695Z,100375.88
2022-12-26T19:46:16.947Z,100381.75
2022-12-26T19:48:45.648Z,100395.69
2022-12-26T19:51:15.841Z,100397.75
2022-12-26T19:53:46.062Z,100406.34
2022-12-26T19:56:19.903Z,100406.56
2022-12-26T19:58:54.682Z,100413.94
2022-12-26T20:01:27.786Z,100417.03
2022-12-26T20:03:58.079Z,100424.16
2022-12-26T20:06:28.772Z,100426.00
2022-12-26T20:09:01.067Z,100434.97
2022-12-26T20:11:34.439Z,100435.19
2022-12-26T20:14:04.771Z,100443.56
2022-12-26T20:19:22.381Z,100469.13
2022-12-26T20:21:51.464Z,100465.66
2022-12-26T20:24:21.473Z,100482.38
2022-12-26T20:26:51.571Z,100482.78
2022-12-26T20:29:20.191Z,100488.53
2022-12-26T20:31:49.481Z,100485.25
2022-12-26T20:34:19.217Z,100503.41
2022-12-26T20:36:47.580Z,100516.91
2022-12-26T20:39:20.452Z,100522.63
2022-12-26T20:41:50.215Z,100541.16
2022-12-26T20:44:19.343Z,100543.22
2022-12-26T20:46:47.791Z,100550.56
2022-12-26T20:49:16.577Z,100555.22
2022-12-26T20:51:46.501Z,100565.22
2022-12-26T20:54:16.700Z,100571.75
2022-12-26T20:56:46.242Z,100578.91
2022-12-26T20:59:15.957Z,100574.41
2022-12-26T21:01:44.754Z,100569.91
2022-12-26T21:04:20.273Z,100584.19
2022-12-26T21:06:50.373Z,100592.13
2022-12-26T21:09:18.931Z,100584.41
2022-12-26T21:11:47.260Z,100593.97
2022-12-26T21:14:20.691Z,100590.53
2022-12-26T21:16:52.039Z,100598.22
2022-12-26T21:19:22.958Z,100604.56
2022-12-26T21:21:55.815Z,100601.69
2022-12-26T21:24:27.498Z,100614.13
2022-12-26T21:26:57.070Z,100627.38
2022-12-26T21:29:29.612Z,100622.88
2022-12-26T21:31:59.203Z,100635.53
2022-12-26T21:34:31.354Z,100635.94
2022-12-26T21:37:26.420Z,100639.63
2022-12-26T21:39:54.766Z,100634.16
2022-12-26T21:42:23.064Z,100643.13
2022-12-26T21:44:52.791Z,100654.13
2022-12-26T21:47:21.612Z,100664.72
2022-12-26T21:49:49.988Z,100666.78
2022-12-26T21:52:18.285Z,100675.72
2022-12-26T21:55:04.181Z,100691.03
2022-12-26T21:57:34.301Z,100709.97
2022-12-26T22:00:05.596Z,100707.50
2022-12-26T22:02:54.523Z,100729.94
2022-12-26T22:05:25.676Z,100741.13
2022-12-26T22:07:55.330Z,100749.50
2022-12-26T22:10:39.617Z,100746.66
2022-12-26T22:13:08.804Z,100747.91
2022-12-26T22:16:00.421Z,100764.78
2022-12-26T22:18:28.821Z,100766.22
2022-12-26T22:20:57.116Z,100772.53
2022-12-26T22:23:25.563Z,100785.13
2022-12-26T22:25:55.764Z,100785.53
2022-12-26T22:28:24.681Z,100799.41
2022-12-26T22:30:54.496Z,100804.28
2022-12-26T22:33:22.997Z,100801.06
2022-12-26T22:35:51.422Z,100818.94
2022-12-26T22:38:20.053Z,100818.75
2022-12-26T22:41:00.208Z,100816.50
2022-12-26T22:43:28.950Z,100812.44
2022-12-26T22:45:58.894Z,100823.41
2022-12-26T22:48:27.327Z,100835.03
2022-12-26T22:50:57.042Z,100838.69
2022-12-26T22:53:27.119Z,100840.72
2022-12-26T22:56:02.062Z,100845.59
2022-12-26T22:58:32.307Z,100851.91
2022-12-26T23:01:02.436Z,100837.25
2022-12-26T23:03:31.066Z,100840.91
2022-12-26T23:06:00.097Z,100841.94
2022-12-26T23:08:29.447Z,100836.03
2022-12-26T23:10:59.803Z,100852.09
2022-12-26T23:13:28.966Z,100854.13
2022-12-26T23:16:05.051Z,100860.00
2022-12-26T23:18:59.342Z,100861.22
2022-12-26T23:21:42.246Z,100873.22
2022-12-26T23:24:16.240Z,100869.13
2022-12-26T23:26:47.911Z,100870.56
2022-12-26T23:29:36.665Z,100879.50
2022-12-26T23:32:07.602Z,100875.78
2022-12-26T23:34:36.885Z,100888.41
2022-12-26T23:37:05.278Z,100887.78
2022-12-26T23:39:33.595Z,100899.53
2022-12-26T23:42:01.960Z,100897.50
2022-12-26T23:44:30.957Z,100903.81
2022-12-26T23:46:59.315Z,100902.38
2022-12-26T23:49:29.071Z,100911.53
2022-12-26T23:51:57.495Z,100912.09
2022-12-26T23:54:25.984Z,100916.56
2022-12-26T23:56:54.451Z,100916.78
2022-12-26T23:59:22.863Z,100905.97
